CheckWX is a tool to help pilots better visualize weather data.  It is not intended as a substitute for an official pre-flight weather briefing.

13:11:56 UTC

KAGC TAF
Allegheny County Airport
Pittsburgh, Pennsylvania, USA
KAGC 241120Z 2412/2512 32009KT P6SM FEW250 FM250000 VRB04KT P6SM BKN070 FM250900 16006KT P6SM VCSH OVC050

May-24@
12:00 UTC

May-24 @ 12:00 UTC

May-25@
00:00 UTC

May-25 @ 00:00 UTC

KAGC 241120Z 2412/2512 32009KT P6SM FEW250
Wind
  • 320° at 9 KTS
Cloud Levels
  • Few at 25,000' AGL

May-25@
00:00 UTC

May-25 @ 00:00 UTC

May-25@
09:00 UTC

May-25 @ 09:00 UTC

FM250000 VRB04KT P6SM BKN070

From

From Standard forecast or significant change

Wind
  • Variable at 4 KTS
Cloud Levels
  • Broken at 7,000' AGL

May-25@
09:00 UTC

May-25 @ 09:00 UTC

May-25@
12:00 UTC

May-25 @ 12:00 UTC

FM250900 16006KT P6SM VCSH OVC050

From

From Standard forecast or significant change

Wind
  • 160° at 6 KTS
Cloud Levels
  • Overcast at 5,000' AGL